sensor_id;sensor_type;location;lat;lon;timestamp;P1;durP1;ratioP1;P2;durP2;ratioP2
17251;SDS011;8742;51.716;8.790;2024-01-16T00:01:41;15.23;;;3.87;;
17251;SDS011;8742;51.716;8.790;2024-01-16T00:04:08;13.27;;;3.63;;
17251;SDS011;8742;51.716;8.790;2024-01-16T00:06:38;10.20;;;4.50;;
17251;SDS011;8742;51.716;8.790;2024-01-16T00:09:05;15.30;;;4.13;;
17251;SDS011;8742;51.716;8.790;2024-01-16T00:11:32;19.67;;;4.13;;
17251;SDS011;8742;51.716;8.790;2024-01-16T00:13:59;15.87;;;4.20;;
17251;SDS011;8742;51.716;8.790;2024-01-16T00:16:27;14.43;;;5.30;;
17251;SDS011;8742;51.716;8.790;2024-01-16T00:18:54;7.07;;;4.50;;
17251;SDS011;8742;51.716;8.790;2024-01-16T00:21:20;17.23;;;5.40;;
17251;SDS011;8742;51.716;8.790;2024-01-16T00:23:47;9.93;;;3.50;;
17251;SDS011;8742;51.716;8.790;2024-01-16T00:26:19;11.33;;;5.03;;
17251;SDS011;8742;51.716;8.790;2024-01-16T00:28:47;14.87;;;5.17;;
17251;SDS011;8742;51.716;8.790;2024-01-16T00:31:13;13.47;;;5.20;;
17251;SDS011;8742;51.716;8.790;2024-01-16T00:33:42;16.10;;;6.20;;
17251;SDS011;8742;51.716;8.790;2024-01-16T00:36:11;17.37;;;7.57;;
17251;SDS011;8742;51.716;8.790;2024-01-16T00:38:38;23.50;;;9.53;;
17251;SDS011;8742;51.716;8.790;2024-01-16T00:41:05;20.60;;;9.90;;
17251;SDS011;8742;51.716;8.790;2024-01-16T00:43:32;19.83;;;10.17;;
17251;SDS011;8742;51.716;8.790;2024-01-16T00:46:00;20.47;;;10.13;;
17251;SDS011;8742;51.716;8.790;2024-01-16T00:48:27;21.60;;;11.37;;
17251;SDS011;8742;51.716;8.790;2024-01-16T00:50:55;25.87;;;12.10;;
17251;SDS011;8742;51.716;8.790;2024-01-16T00:53:22;20.50;;;10.33;;
17251;SDS011;8742;51.716;8.790;2024-01-16T00:55:49;21.67;;;11.13;;
17251;SDS011;8742;51.716;8.790;2024-01-16T00:58:17;23.60;;;10.83;;
17251;SDS011;8742;51.716;8.790;2024-01-16T01:00:44;27.67;;;10.27;;
17251;SDS011;8742;51.716;8.790;2024-01-16T01:03:10;22.93;;;10.13;;
17251;SDS011;8742;51.716;8.790;2024-01-16T01:05:37;28.30;;;11.60;;
17251;SDS011;8742;51.716;8.790;2024-01-16T01:08:06;24.40;;;10.60;;
17251;SDS011;8742;51.716;8.790;2024-01-16T01:10:34;18.77;;;9.33;;
17251;SDS011;8742;51.716;8.790;2024-01-16T01:13:00;23.67;;;9.53;;
17251;SDS011;8742;51.716;8.790;2024-01-16T01:15:27;17.07;;;7.73;;
17251;SDS011;8742;51.716;8.790;2024-01-16T01:17:54;16.80;;;8.47;;
17251;SDS011;8742;51.716;8.790;2024-01-16T01:20:21;16.77;;;8.00;;
17251;SDS011;8742;51.716;8.790;2024-01-16T01:22:48;17.47;;;8.27;;
17251;SDS011;8742;51.716;8.790;2024-01-16T01:25:16;21.93;;;7.67;;
17251;SDS011;8742;51.716;8.790;2024-01-16T01:27:43;26.47;;;7.50;;
17251;SDS011;8742;51.716;8.790;2024-01-16T01:30:10;21.83;;;7.67;;
17251;SDS011;8742;51.716;8.790;2024-01-16T01:32:37;22.87;;;7.10;;
17251;SDS011;8742;51.716;8.790;2024-01-16T01:35:05;20.03;;;7.33;;
17251;SDS011;8742;51.716;8.790;2024-01-16T01:37:32;13.37;;;6.13;;
17251;SDS011;8742;51.716;8.790;2024-01-16T01:39:59;19.30;;;7.40;;
17251;SDS011;8742;51.716;8.790;2024-01-16T01:42:27;16.90;;;7.17;;
17251;SDS011;8742;51.716;8.790;2024-01-16T01:44:54;17.77;;;7.17;;
17251;SDS011;8742;51.716;8.790;2024-01-16T01:47:21;20.90;;;7.83;;
17251;SDS011;8742;51.716;8.790;2024-01-16T01:49:48;20.70;;;7.33;;
17251;SDS011;8742;51.716;8.790;2024-01-16T01:52:16;18.33;;;7.90;;
17251;SDS011;8742;51.716;8.790;2024-01-16T01:54:44;16.80;;;8.40;;
17251;SDS011;8742;51.716;8.790;2024-01-16T01:57:11;15.67;;;8.13;;
17251;SDS011;8742;51.716;8.790;2024-01-16T01:59:39;27.83;;;9.50;;
17251;SDS011;8742;51.716;8.790;2024-01-16T02:02:07;20.47;;;8.80;;
17251;SDS011;8742;51.716;8.790;2024-01-16T02:04:34;25.07;;;9.43;;
17251;SDS011;8742;51.716;8.790;2024-01-16T02:07:02;23.30;;;9.87;;
17251;SDS011;8742;51.716;8.790;2024-01-16T02:09:30;26.10;;;10.77;;
17251;SDS011;8742;51.716;8.790;2024-01-16T02:11:58;22.73;;;10.93;;
17251;SDS011;8742;51.716;8.790;2024-01-16T02:14:24;22.33;;;11.30;;
17251;SDS011;8742;51.716;8.790;2024-01-16T02:16:52;24.30;;;11.10;;
17251;SDS011;8742;51.716;8.790;2024-01-16T02:19:20;21.63;;;9.90;;
17251;SDS011;8742;51.716;8.790;2024-01-16T02:21:48;23.90;;;11.17;;
17251;SDS011;8742;51.716;8.790;2024-01-16T02:24:17;20.50;;;9.37;;
17251;SDS011;8742;51.716;8.790;2024-01-16T02:26:44;26.50;;;10.67;;
17251;SDS011;8742;51.716;8.790;2024-01-16T02:29:12;19.70;;;9.97;;
17251;SDS011;8742;51.716;8.790;2024-01-16T02:31:39;17.37;;;7.57;;
17251;SDS011;8742;51.716;8.790;2024-01-16T02:34:06;27.10;;;11.03;;
17251;SDS011;8742;51.716;8.790;2024-01-16T02:36:33;29.73;;;10.40;;
17251;SDS011;8742;51.716;8.790;2024-01-16T02:39:00;25.67;;;12.07;;
17251;SDS011;8742;51.716;8.790;2024-01-16T02:41:29;29.37;;;11.77;;
17251;SDS011;8742;51.716;8.790;2024-01-16T02:43:56;26.50;;;11.47;;
17251;SDS011;8742;51.716;8.790;2024-01-16T02:46:22;24.47;;;12.30;;
17251;SDS011;8742;51.716;8.790;2024-01-16T02:48:49;35.07;;;14.00;;
17251;SDS011;8742;51.716;8.790;2024-01-16T02:51:16;26.23;;;13.87;;
17251;SDS011;8742;51.716;8.790;2024-01-16T02:53:43;31.57;;;14.00;;
17251;SDS011;8742;51.716;8.790;2024-01-16T02:56:10;31.50;;;14.33;;
17251;SDS011;8742;51.716;8.790;2024-01-16T02:58:38;25.77;;;13.03;;
17251;SDS011;8742;51.716;8.790;2024-01-16T03:01:05;38.03;;;16.17;;
17251;SDS011;8742;51.716;8.790;2024-01-16T03:03:32;37.27;;;14.27;;
17251;SDS011;8742;51.716;8.790;2024-01-16T03:05:59;37.90;;;16.07;;
17251;SDS011;8742;51.716;8.790;2024-01-16T03:08:26;39.27;;;15.30;;
17251;SDS011;8742;51.716;8.790;2024-01-16T03:10:52;34.63;;;14.97;;
17251;SDS011;8742;51.716;8.790;2024-01-16T03:13:19;32.80;;;15.63;;
17251;SDS011;8742;51.716;8.790;2024-01-16T03:15:47;38.80;;;16.47;;
17251;SDS011;8742;51.716;8.790;2024-01-16T03:18:14;30.07;;;14.60;;
17251;SDS011;8742;51.716;8.790;2024-01-16T03:20:42;34.90;;;14.83;;
17251;SDS011;8742;51.716;8.790;2024-01-16T03:23:09;38.13;;;15.30;;
17251;SDS011;8742;51.716;8.790;2024-01-16T03:25:35;38.70;;;14.30;;
17251;SDS011;8742;51.716;8.790;2024-01-16T03:28:04;41.50;;;13.73;;
17251;SDS011;8742;51.716;8.790;2024-01-16T03:30:33;40.37;;;12.77;;
17251;SDS011;8742;51.716;8.790;2024-01-16T03:33:01;31.20;;;14.20;;
17251;SDS011;8742;51.716;8.790;2024-01-16T03:35:28;33.63;;;14.23;;
17251;SDS011;8742;51.716;8.790;2024-01-16T03:37:55;35.30;;;14.13;;
17251;SDS011;8742;51.716;8.790;2024-01-16T03:40:22;37.90;;;14.53;;
17251;SDS011;8742;51.716;8.790;2024-01-16T03:42:49;29.97;;;12.83;;
17251;SDS011;8742;51.716;8.790;2024-01-16T03:45:15;25.40;;;11.13;;
17251;SDS011;8742;51.716;8.790;2024-01-16T03:47:42;28.23;;;12.57;;
17251;SDS011;8742;51.716;8.790;2024-01-16T03:50:11;36.33;;;13.67;;
17251;SDS011;8742;51.716;8.790;2024-01-16T03:52:38;35.90;;;13.73;;
17251;SDS011;8742;51.716;8.790;2024-01-16T03:55:05;31.57;;;13.70;;
17251;SDS011;8742;51.716;8.790;2024-01-16T03:57:32;34.17;;;14.60;;
17251;SDS011;8742;51.716;8.790;2024-01-16T03:59:59;38.50;;;14.40;;
17251;SDS011;8742;51.716;8.790;2024-01-16T04:02:26;44.60;;;15.60;;
17251;SDS011;8742;51.716;8.790;2024-01-16T04:04:53;40.20;;;14.53;;
17251;SDS011;8742;51.716;8.790;2024-01-16T04:07:23;31.43;;;13.53;;
17251;SDS011;8742;51.716;8.790;2024-01-16T04:09:51;35.67;;;14.80;;
17251;SDS011;8742;51.716;8.790;2024-01-16T04:12:18;33.67;;;14.47;;
17251;SDS011;8742;51.716;8.790;2024-01-16T04:14:45;34.87;;;14.70;;
17251;SDS011;8742;51.716;8.790;2024-01-16T04:17:12;30.90;;;13.57;;
17251;SDS011;8742;51.716;8.790;2024-01-16T04:19:38;30.87;;;13.17;;
17251;SDS011;8742;51.716;8.790;2024-01-16T04:22:05;33.17;;;14.53;;
17251;SDS011;8742;51.716;8.790;2024-01-16T04:24:34;36.27;;;15.30;;
17251;SDS011;8742;51.716;8.790;2024-01-16T04:27:00;41.20;;;13.83;;
17251;SDS011;8742;51.716;8.790;2024-01-16T04:29:27;40.57;;;14.27;;
17251;SDS011;8742;51.716;8.790;2024-01-16T04:31:54;39.03;;;15.23;;
17251;SDS011;8742;51.716;8.790;2024-01-16T04:34:22;35.37;;;12.67;;
17251;SDS011;8742;51.716;8.790;2024-01-16T04:36:49;30.07;;;13.47;;
17251;SDS011;8742;51.716;8.790;2024-01-16T04:39:16;33.47;;;14.03;;
17251;SDS011;8742;51.716;8.790;2024-01-16T04:41:44;29.83;;;13.63;;
17251;SDS011;8742;51.716;8.790;2024-01-16T04:44:11;31.30;;;14.47;;
17251;SDS011;8742;51.716;8.790;2024-01-16T04:46:38;37.30;;;15.37;;
17251;SDS011;8742;51.716;8.790;2024-01-16T04:49:05;33.43;;;15.17;;
17251;SDS011;8742;51.716;8.790;2024-01-16T04:51:31;43.07;;;15.07;;
17251;SDS011;8742;51.716;8.790;2024-01-16T04:53:58;28.23;;;13.73;;
17251;SDS011;8742;51.716;8.790;2024-01-16T04:56:25;43.97;;;15.53;;
17251;SDS011;8742;51.716;8.790;2024-01-16T04:58:53;31.80;;;14.10;;
17251;SDS011;8742;51.716;8.790;2024-01-16T05:01:20;33.60;;;14.03;;
17251;SDS011;8742;51.716;8.790;2024-01-16T05:03:47;32.13;;;13.13;;
17251;SDS011;8742;51.716;8.790;2024-01-16T05:06:14;33.37;;;13.23;;
17251;SDS011;8742;51.716;8.790;2024-01-16T05:08:41;31.50;;;12.47;;
17251;SDS011;8742;51.716;8.790;2024-01-16T05:11:09;30.20;;;12.67;;
17251;SDS011;8742;51.716;8.790;2024-01-16T05:13:35;29.70;;;12.37;;
17251;SDS011;8742;51.716;8.790;2024-01-16T05:16:05;31.60;;;14.00;;
17251;SDS011;8742;51.716;8.790;2024-01-16T05:18:33;26.80;;;13.77;;
17251;SDS011;8742;51.716;8.790;2024-01-16T05:20:59;26.10;;;11.77;;
17251;SDS011;8742;51.716;8.790;2024-01-16T05:23:27;40.43;;;14.10;;
17251;SDS011;8742;51.716;8.790;2024-01-16T05:25:54;40.07;;;13.77;;
17251;SDS011;8742;51.716;8.790;2024-01-16T05:28:21;32.80;;;14.23;;
17251;SDS011;8742;51.716;8.790;2024-01-16T05:30:47;37.10;;;14.17;;
17251;SDS011;8742;51.716;8.790;2024-01-16T05:33:16;38.43;;;14.73;;
17251;SDS011;8742;51.716;8.790;2024-01-16T05:35:42;36.23;;;13.27;;
17251;SDS011;8742;51.716;8.790;2024-01-16T05:38:09;31.00;;;13.63;;
17251;SDS011;8742;51.716;8.790;2024-01-16T05:40:37;27.33;;;12.90;;
17251;SDS011;8742;51.716;8.790;2024-01-16T05:43:04;41.43;;;14.70;;
17251;SDS011;8742;51.716;8.790;2024-01-16T05:45:31;28.40;;;12.87;;
17251;SDS011;8742;51.716;8.790;2024-01-16T05:47:57;28.10;;;12.60;;
17251;SDS011;8742;51.716;8.790;2024-01-16T05:50:26;68.73;;;24.43;;
17251;SDS011;8742;51.716;8.790;2024-01-16T05:52:52;33.63;;;12.47;;
17251;SDS011;8742;51.716;8.790;2024-01-16T05:55:19;36.03;;;13.10;;
17251;SDS011;8742;51.716;8.790;2024-01-16T05:57:46;31.03;;;12.87;;
17251;SDS011;8742;51.716;8.790;2024-01-16T06:00:13;30.37;;;12.67;;
17251;SDS011;8742;51.716;8.790;2024-01-16T06:02:43;31.93;;;12.20;;
17251;SDS011;8742;51.716;8.790;2024-01-16T06:05:09;24.53;;;10.47;;
17251;SDS011;8742;51.716;8.790;2024-01-16T06:07:38;35.03;;;13.70;;
17251;SDS011;8742;51.716;8.790;2024-01-16T06:10:05;31.40;;;13.57;;
17251;SDS011;8742;51.716;8.790;2024-01-16T06:12:33;32.17;;;13.93;;
17251;SDS011;8742;51.716;8.790;2024-01-16T06:15:00;34.10;;;14.17;;
17251;SDS011;8742;51.716;8.790;2024-01-16T06:17:27;38.40;;;13.63;;
17251;SDS011;8742;51.716;8.790;2024-01-16T06:19:54;35.60;;;14.87;;
17251;SDS011;8742;51.716;8.790;2024-01-16T06:22:21;39.00;;;14.53;;
17251;SDS011;8742;51.716;8.790;2024-01-16T06:24:49;34.83;;;14.50;;
17251;SDS011;8742;51.716;8.790;2024-01-16T06:27:16;31.20;;;13.03;;
17251;SDS011;8742;51.716;8.790;2024-01-16T06:29:45;36.43;;;14.83;;
17251;SDS011;8742;51.716;8.790;2024-01-16T06:32:12;32.93;;;13.77;;
17251;SDS011;8742;51.716;8.790;2024-01-16T06:34:38;45.93;;;15.07;;
17251;SDS011;8742;51.716;8.790;2024-01-16T06:37:05;34.70;;;12.70;;
17251;SDS011;8742;51.716;8.790;2024-01-16T06:39:33;39.33;;;14.53;;
17251;SDS011;8742;51.716;8.790;2024-01-16T06:42:01;29.30;;;13.40;;
17251;SDS011;8742;51.716;8.790;2024-01-16T06:44:30;44.77;;;14.17;;
17251;SDS011;8742;51.716;8.790;2024-01-16T06:46:56;33.83;;;14.47;;
17251;SDS011;8742;51.716;8.790;2024-01-16T06:49:24;40.00;;;15.30;;
17251;SDS011;8742;51.716;8.790;2024-01-16T06:51:52;39.63;;;13.80;;
17251;SDS011;8742;51.716;8.790;2024-01-16T06:54:18;37.53;;;15.50;;
17251;SDS011;8742;51.716;8.790;2024-01-16T06:56:48;37.43;;;15.93;;
17251;SDS011;8742;51.716;8.790;2024-01-16T06:59:16;45.93;;;15.67;;
17251;SDS011;8742;51.716;8.790;2024-01-16T07:01:44;34.23;;;15.60;;
17251;SDS011;8742;51.716;8.790;2024-01-16T07:04:11;45.37;;;17.23;;
17251;SDS011;8742;51.716;8.790;2024-01-16T07:06:39;38.70;;;15.37;;
17251;SDS011;8742;51.716;8.790;2024-01-16T07:09:06;34.73;;;14.63;;
17251;SDS011;8742;51.716;8.790;2024-01-16T07:11:35;31.90;;;15.50;;
17251;SDS011;8742;51.716;8.790;2024-01-16T07:14:02;35.03;;;16.27;;
17251;SDS011;8742;51.716;8.790;2024-01-16T07:16:31;43.33;;;17.53;;
17251;SDS011;8742;51.716;8.790;2024-01-16T07:18:58;39.40;;;16.27;;
17251;SDS011;8742;51.716;8.790;2024-01-16T07:21:24;37.33;;;15.73;;
17251;SDS011;8742;51.716;8.790;2024-01-16T07:23:51;44.77;;;17.03;;
17251;SDS011;8742;51.716;8.790;2024-01-16T07:26:18;40.70;;;18.03;;
17251;SDS011;8742;51.716;8.790;2024-01-16T07:28:45;33.50;;;15.80;;
17251;SDS011;8742;51.716;8.790;2024-01-16T07:31:13;37.23;;;16.43;;
17251;SDS011;8742;51.716;8.790;2024-01-16T07:33:42;31.77;;;12.17;;
17251;SDS011;8742;51.716;8.790;2024-01-16T07:36:10;34.33;;;16.20;;
17251;SDS011;8742;51.716;8.790;2024-01-16T07:38:37;40.90;;;17.30;;
17251;SDS011;8742;51.716;8.790;2024-01-16T07:41:04;37.67;;;16.57;;
17251;SDS011;8742;51.716;8.790;2024-01-16T07:43:31;33.93;;;14.10;;
17251;SDS011;8742;51.716;8.790;2024-01-16T07:45:58;39.13;;;16.67;;
17251;SDS011;8742;51.716;8.790;2024-01-16T07:48:25;38.57;;;15.83;;
17251;SDS011;8742;51.716;8.790;2024-01-16T07:50:53;39.93;;;16.73;;
17251;SDS011;8742;51.716;8.790;2024-01-16T07:53:21;46.83;;;16.57;;
17251;SDS011;8742;51.716;8.790;2024-01-16T07:55:47;42.07;;;16.77;;
17251;SDS011;8742;51.716;8.790;2024-01-16T07:58:14;48.30;;;17.83;;
17251;SDS011;8742;51.716;8.790;2024-01-16T08:00:41;33.20;;;16.23;;
17251;SDS011;8742;51.716;8.790;2024-01-16T08:03:09;42.33;;;16.67;;
17251;SDS011;8742;51.716;8.790;2024-01-16T08:05:36;39.87;;;15.97;;
17251;SDS011;8742;51.716;8.790;2024-01-16T08:08:05;39.60;;;16.17;;
17251;SDS011;8742;51.716;8.790;2024-01-16T08:10:34;47.53;;;19.57;;
17251;SDS011;8742;51.716;8.790;2024-01-16T08:13:01;44.13;;;16.73;;
17251;SDS011;8742;51.716;8.790;2024-01-16T08:15:28;42.30;;;16.47;;
17251;SDS011;8742;51.716;8.790;2024-01-16T08:17:55;40.97;;;15.43;;
17251;SDS011;8742;51.716;8.790;2024-01-16T08:20:22;48.67;;;13.63;;
17251;SDS011;8742;51.716;8.790;2024-01-16T08:22:48;33.30;;;14.10;;
17251;SDS011;8742;51.716;8.790;2024-01-16T08:25:17;31.60;;;15.37;;
17251;SDS011;8742;51.716;8.790;2024-01-16T08:27:44;34.97;;;14.03;;
17251;SDS011;8742;51.716;8.790;2024-01-16T08:30:11;31.57;;;14.47;;
17251;SDS011;8742;51.716;8.790;2024-01-16T08:32:38;36.73;;;15.10;;
17251;SDS011;8742;51.716;8.790;2024-01-16T08:35:05;28.63;;;14.67;;
17251;SDS011;8742;51.716;8.790;2024-01-16T08:37:33;33.93;;;14.10;;
17251;SDS011;8742;51.716;8.790;2024-01-16T08:40:00;28.47;;;13.93;;
17251;SDS011;8742;51.716;8.790;2024-01-16T08:42:30;31.17;;;14.13;;
17251;SDS011;8742;51.716;8.790;2024-01-16T08:44:57;34.30;;;14.60;;
17251;SDS011;8742;51.716;8.790;2024-01-16T08:47:24;32.47;;;12.70;;
17251;SDS011;8742;51.716;8.790;2024-01-16T08:49:51;24.80;;;11.80;;
17251;SDS011;8742;51.716;8.790;2024-01-16T08:52:18;31.10;;;12.43;;
17251;SDS011;8742;51.716;8.790;2024-01-16T08:54:45;31.63;;;13.63;;
17251;SDS011;8742;51.716;8.790;2024-01-16T08:57:12;27.97;;;12.10;;
17251;SDS011;8742;51.716;8.790;2024-01-16T08:59:40;33.60;;;11.30;;
17251;SDS011;8742;51.716;8.790;2024-01-16T09:02:07;27.40;;;11.07;;
17251;SDS011;8742;51.716;8.790;2024-01-16T09:04:34;28.93;;;12.60;;
17251;SDS011;8742;51.716;8.790;2024-01-16T09:07:03;23.37;;;11.50;;
17251;SDS011;8742;51.716;8.790;2024-01-16T09:09:30;27.10;;;12.50;;
17251;SDS011;8742;51.716;8.790;2024-01-16T09:11:57;27.93;;;12.03;;
17251;SDS011;8742;51.716;8.790;2024-01-16T09:14:24;30.57;;;11.40;;
17251;SDS011;8742;51.716;8.790;2024-01-16T09:16:52;24.30;;;9.83;;
17251;SDS011;8742;51.716;8.790;2024-01-16T09:19:20;24.23;;;9.50;;
17251;SDS011;8742;51.716;8.790;2024-01-16T09:21:47;22.97;;;11.17;;
17251;SDS011;8742;51.716;8.790;2024-01-16T09:24:13;28.93;;;12.43;;
17251;SDS011;8742;51.716;8.790;2024-01-16T09:26:40;23.27;;;10.80;;
17251;SDS011;8742;51.716;8.790;2024-01-16T09:29:07;29.37;;;10.93;;
17251;SDS011;8742;51.716;8.790;2024-01-16T09:31:35;29.57;;;12.43;;
17251;SDS011;8742;51.716;8.790;2024-01-16T09:34:03;29.20;;;13.03;;
17251;SDS011;8742;51.716;8.790;2024-01-16T09:36:30;23.50;;;11.40;;
17251;SDS011;8742;51.716;8.790;2024-01-16T09:38:57;23.87;;;11.70;;
17251;SDS011;8742;51.716;8.790;2024-01-16T09:41:24;22.83;;;10.97;;
17251;SDS011;8742;51.716;8.790;2024-01-16T09:43:51;24.13;;;11.73;;
17251;SDS011;8742;51.716;8.790;2024-01-16T09:46:17;23.87;;;11.50;;
17251;SDS011;8742;51.716;8.790;2024-01-16T09:48:48;27.17;;;12.83;;
17251;SDS011;8742;51.716;8.790;2024-01-16T09:51:21;24.67;;;12.60;;
17251;SDS011;8742;51.716;8.790;2024-01-16T09:53:48;28.80;;;13.03;;
17251;SDS011;8742;51.716;8.790;2024-01-16T09:56:18;27.20;;;12.53;;
17251;SDS011;8742;51.716;8.790;2024-01-16T09:58:49;28.13;;;11.60;;
17251;SDS011;8742;51.716;8.790;2024-01-16T10:01:18;32.73;;;12.50;;
17251;SDS011;8742;51.716;8.790;2024-01-16T10:03:46;31.67;;;12.00;;
17251;SDS011;8742;51.716;8.790;2024-01-16T10:06:13;22.30;;;11.10;;
17251;SDS011;8742;51.716;8.790;2024-01-16T10:08:44;23.40;;;11.53;;
17251;SDS011;8742;51.716;8.790;2024-01-16T10:11:12;23.73;;;11.30;;
17251;SDS011;8742;51.716;8.790;2024-01-16T10:13:39;20.77;;;10.20;;
17251;SDS011;8742;51.716;8.790;2024-01-16T10:16:06;27.07;;;11.07;;
17251;SDS011;8742;51.716;8.790;2024-01-16T10:18:33;23.13;;;8.43;;
17251;SDS011;8742;51.716;8.790;2024-01-16T10:21:02;74.70;;;34.17;;
17251;SDS011;8742;51.716;8.790;2024-01-16T10:23:30;41.60;;;15.27;;
17251;SDS011;8742;51.716;8.790;2024-01-16T10:26:08;26.57;;;10.53;;
17251;SDS011;8742;51.716;8.790;2024-01-16T10:28:37;25.87;;;9.80;;
17251;SDS011;8742;51.716;8.790;2024-01-16T10:31:05;20.27;;;8.27;;
17251;SDS011;8742;51.716;8.790;2024-01-16T10:33:33;15.70;;;7.97;;
17251;SDS011;8742;51.716;8.790;2024-01-16T10:36:09;18.40;;;8.70;;
17251;SDS011;8742;51.716;8.790;2024-01-16T10:38:37;17.10;;;7.23;;
17251;SDS011;8742;51.716;8.790;2024-01-16T10:41:05;26.27;;;8.50;;
17251;SDS011;8742;51.716;8.790;2024-01-16T10:43:36;19.00;;;7.20;;
17251;SDS011;8742;51.716;8.790;2024-01-16T10:46:07;24.03;;;7.63;;
17251;SDS011;8742;51.716;8.790;2024-01-16T10:48:38;27.43;;;7.70;;
17251;SDS011;8742;51.716;8.790;2024-01-16T10:51:06;19.97;;;6.83;;
17251;SDS011;8742;51.716;8.790;2024-01-16T10:53:34;18.87;;;6.63;;
17251;SDS011;8742;51.716;8.790;2024-01-16T10:56:01;19.00;;;5.73;;
17251;SDS011;8742;51.716;8.790;2024-01-16T10:58:29;16.37;;;5.80;;
17251;SDS011;8742;51.716;8.790;2024-01-16T11:01:01;13.63;;;5.43;;
17251;SDS011;8742;51.716;8.790;2024-01-16T11:03:34;17.87;;;6.33;;
17251;SDS011;8742;51.716;8.790;2024-01-16T11:06:03;21.67;;;6.23;;
17251;SDS011;8742;51.716;8.790;2024-01-16T11:08:33;15.90;;;5.77;;
17251;SDS011;8742;51.716;8.790;2024-01-16T11:11:02;14.33;;;6.20;;
17251;SDS011;8742;51.716;8.790;2024-01-16T11:13:30;13.73;;;4.93;;
17251;SDS011;8742;51.716;8.790;2024-01-16T11:16:00;15.70;;;5.20;;
17251;SDS011;8742;51.716;8.790;2024-01-16T11:18:28;13.10;;;4.00;;
17251;SDS011;8742;51.716;8.790;2024-01-16T11:20:57;10.57;;;3.57;;
17251;SDS011;8742;51.716;8.790;2024-01-16T11:23:25;7.27;;;3.70;;
17251;SDS011;8742;51.716;8.790;2024-01-16T11:25:52;10.67;;;3.73;;
17251;SDS011;8742;51.716;8.790;2024-01-16T11:28:19;14.63;;;4.17;;
17251;SDS011;8742;51.716;8.790;2024-01-16T11:30:46;18.97;;;4.27;;
17251;SDS011;8742;51.716;8.790;2024-01-16T11:39:18;8.70;;;3.93;;
17251;SDS011;8742;51.716;8.790;2024-01-16T11:41:50;16.50;;;3.63;;
17251;SDS011;8742;51.716;8.790;2024-01-16T11:44:36;15.20;;;4.03;;
17251;SDS011;8742;51.716;8.790;2024-01-16T11:47:07;11.60;;;3.80;;
17251;SDS011;8742;51.716;8.790;2024-01-16T11:49:36;11.30;;;3.40;;
17251;SDS011;8742;51.716;8.790;2024-01-16T11:52:04;8.03;;;2.73;;
17251;SDS011;8742;51.716;8.790;2024-01-16T11:54:32;13.90;;;3.13;;
17251;SDS011;8742;51.716;8.790;2024-01-16T11:57:03;12.00;;;2.80;;
17251;SDS011;8742;51.716;8.790;2024-01-16T11:59:58;9.23;;;2.70;;
17251;SDS011;8742;51.716;8.790;2024-01-16T12:02:28;65.90;;;22.20;;
17251;SDS011;8742;51.716;8.790;2024-01-16T12:05:06;75.13;;;27.57;;
17251;SDS011;8742;51.716;8.790;2024-01-16T12:07:42;29.10;;;11.30;;
17251;SDS011;8742;51.716;8.790;2024-01-16T12:10:11;20.43;;;7.07;;
17251;SDS011;8742;51.716;8.790;2024-01-16T12:12:38;8.50;;;3.83;;
17251;SDS011;8742;51.716;8.790;2024-01-16T12:15:05;9.07;;;3.00;;
17251;SDS011;8742;51.716;8.790;2024-01-16T12:17:34;11.47;;;2.50;;
17251;SDS011;8742;51.716;8.790;2024-01-16T12:20:09;8.40;;;3.07;;
17251;SDS011;8742;51.716;8.790;2024-01-16T12:22:44;6.20;;;2.30;;
17251;SDS011;8742;51.716;8.790;2024-01-16T12:25:11;7.73;;;2.53;;
17251;SDS011;8742;51.716;8.790;2024-01-16T12:27:38;5.97;;;2.13;;
17251;SDS011;8742;51.716;8.790;2024-01-16T12:30:05;7.83;;;2.77;;
17251;SDS011;8742;51.716;8.790;2024-01-16T12:32:33;6.87;;;2.67;;
17251;SDS011;8742;51.716;8.790;2024-01-16T12:35:00;8.77;;;2.57;;
17251;SDS011;8742;51.716;8.790;2024-01-16T12:37:28;8.07;;;2.40;;
17251;SDS011;8742;51.716;8.790;2024-01-16T12:39:55;11.40;;;2.47;;
17251;SDS011;8742;51.716;8.790;2024-01-16T12:42:22;9.77;;;2.67;;
17251;SDS011;8742;51.716;8.790;2024-01-16T12:44:50;6.43;;;2.10;;
17251;SDS011;8742;51.716;8.790;2024-01-16T12:47:18;8.50;;;2.33;;
17251;SDS011;8742;51.716;8.790;2024-01-16T12:49:46;13.40;;;3.03;;
17251;SDS011;8742;51.716;8.790;2024-01-16T12:52:17;5.77;;;2.40;;
17251;SDS011;8742;51.716;8.790;2024-01-16T12:54:46;11.83;;;2.33;;
17251;SDS011;8742;51.716;8.790;2024-01-16T12:57:18;10.60;;;2.47;;
17251;SDS011;8742;51.716;8.790;2024-01-16T12:59:46;6.77;;;1.90;;
17251;SDS011;8742;51.716;8.790;2024-01-16T13:02:20;13.20;;;2.97;;
17251;SDS011;8742;51.716;8.790;2024-01-16T13:04:48;10.47;;;2.40;;
17251;SDS011;8742;51.716;8.790;2024-01-16T13:07:22;6.03;;;2.20;;
17251;SDS011;8742;51.716;8.790;2024-01-16T13:09:50;11.83;;;2.67;;
17251;SDS011;8742;51.716;8.790;2024-01-16T13:12:31;11.03;;;3.00;;
17251;SDS011;8742;51.716;8.790;2024-01-16T13:14:58;16.70;;;4.33;;
17251;SDS011;8742;51.716;8.790;2024-01-16T13:17:25;14.17;;;3.23;;
17251;SDS011;8742;51.716;8.790;2024-01-16T13:19:52;6.37;;;2.33;;
17251;SDS011;8742;51.716;8.790;2024-01-16T13:22:19;7.23;;;2.13;;
17251;SDS011;8742;51.716;8.790;2024-01-16T13:24:45;11.47;;;2.67;;
17251;SDS011;8742;51.716;8.790;2024-01-16T13:27:14;8.43;;;2.03;;
17251;SDS011;8742;51.716;8.790;2024-01-16T13:29:40;10.47;;;2.40;;
17251;SDS011;8742;51.716;8.790;2024-01-16T13:32:09;6.17;;;2.20;;
17251;SDS011;8742;51.716;8.790;2024-01-16T13:34:36;8.10;;;2.13;;
17251;SDS011;8742;51.716;8.790;2024-01-16T13:37:11;7.53;;;2.60;;
17251;SDS011;8742;51.716;8.790;2024-01-16T13:39:43;6.43;;;2.10;;
17251;SDS011;8742;51.716;8.790;2024-01-16T13:42:10;6.60;;;2.47;;
17251;SDS011;8742;51.716;8.790;2024-01-16T13:44:38;9.53;;;2.27;;
17251;SDS011;8742;51.716;8.790;2024-01-16T13:47:05;13.00;;;2.70;;
17251;SDS011;8742;51.716;8.790;2024-01-16T13:49:32;10.63;;;2.60;;
17251;SDS011;8742;51.716;8.790;2024-01-16T13:51:59;7.50;;;2.53;;
17251;SDS011;8742;51.716;8.790;2024-01-16T13:54:26;7.63;;;2.57;;
17251;SDS011;8742;51.716;8.790;2024-01-16T13:56:52;7.80;;;2.73;;
17251;SDS011;8742;51.716;8.790;2024-01-16T13:59:19;15.07;;;2.90;;
17251;SDS011;8742;51.716;8.790;2024-01-16T14:01:47;13.27;;;2.97;;
17251;SDS011;8742;51.716;8.790;2024-01-16T14:04:14;11.93;;;4.07;;
17251;SDS011;8742;51.716;8.790;2024-01-16T14:06:41;10.47;;;3.40;;
17251;SDS011;8742;51.716;8.790;2024-01-16T14:09:08;9.23;;;2.43;;
17251;SDS011;8742;51.716;8.790;2024-01-16T14:11:35;6.93;;;2.67;;
17251;SDS011;8742;51.716;8.790;2024-01-16T14:14:02;12.33;;;2.97;;
17251;SDS011;8742;51.716;8.790;2024-01-16T14:16:30;6.60;;;2.33;;
17251;SDS011;8742;51.716;8.790;2024-01-16T14:18:58;10.63;;;3.23;;
17251;SDS011;8742;51.716;8.790;2024-01-16T14:21:25;8.37;;;2.60;;
17251;SDS011;8742;51.716;8.790;2024-01-16T14:23:52;6.53;;;2.70;;
17251;SDS011;8742;51.716;8.790;2024-01-16T14:26:19;6.63;;;2.43;;
17251;SDS011;8742;51.716;8.790;2024-01-16T14:28:46;12.73;;;3.20;;
17251;SDS011;8742;51.716;8.790;2024-01-16T14:31:15;10.67;;;2.87;;
17251;SDS011;8742;51.716;8.790;2024-01-16T14:33:41;6.57;;;3.07;;
17251;SDS011;8742;51.716;8.790;2024-01-16T14:36:10;13.07;;;2.97;;
17251;SDS011;8742;51.716;8.790;2024-01-16T14:38:36;13.60;;;3.17;;
17251;SDS011;8742;51.716;8.790;2024-01-16T14:41:03;15.13;;;3.30;;
17251;SDS011;8742;51.716;8.790;2024-01-16T14:43:30;7.40;;;3.73;;
17251;SDS011;8742;51.716;8.790;2024-01-16T14:45:57;8.00;;;3.60;;
17251;SDS011;8742;51.716;8.790;2024-01-16T14:48:24;11.83;;;3.40;;
17251;SDS011;8742;51.716;8.790;2024-01-16T14:50:51;8.13;;;3.77;;